Time;durP1;ratioP1;P1;durP2;ratioP2;P2;SDS_P1;SDS_P2;PMS_P1;PMS_P2;Temp;Humidity;BMP_temperature;BMP_pressure;BME280_temperature;BME280_humidity;BME280_pressure;Samples;Min_cycle;Max_cycle;Signal;HPM_P1;HPM_P2
2023/07/09 00:02:18;;;;;;;6.18;3.08;;;;;;;20.56;53.00;101488.63;4977345;28;20193;-83
2023/07/09 00:04:43;;;;;;;4.93;3.08;;;;;;;20.54;52.84;101493.13;4976870;28;20545;-82
2023/07/09 00:07:28;;;;;;;4.03;2.85;;;;;;;20.41;52.95;101468.75;4994125;28;20496;-83
2023/07/09 00:09:53;;;;;;;7.35;3.47;;;;;;;20.58;53.25;101505.13;4962409;28;20088;-82
2023/07/09 00:12:19;;;;;;;6.38;3.00;;;;;;;20.56;53.28;101496.50;4977067;28;20048;-82
2023/07/09 00:14:44;;;;;;;5.97;2.92;;;;;;;20.55;52.93;101507.97;4993153;28;20081;-82
2023/07/09 00:17:23;;;;;;;4.88;2.80;;;;;;;20.58;53.10;101505.13;4960872;28;20508;-82
2023/07/09 00:19:49;;;;;;;4.75;3.25;;;;;;;20.52;53.11;101502.94;4992981;28;20034;-83
2023/07/09 00:22:16;;;;;;;6.50;3.35;;;;;;;20.52;52.72;101502.94;4976906;28;20477;-82
2023/07/09 00:24:44;;;;;;;6.25;3.20;;;;;;;20.59;52.82;101498.91;4976936;28;20034;-82
2023/07/09 00:27:10;;;;;;;4.70;2.83;;;;;;;20.58;52.56;101499.84;4992948;28;20558;-82
2023/07/09 00:29:35;;;;;;;4.18;2.78;;;;;;;20.62;52.62;101501.28;4976513;28;20026;-82
2023/07/09 00:32:01;;;;;;;5.63;2.70;;;;;;;20.60;52.65;101492.69;4976410;28;20081;-82
2023/07/09 00:34:26;;;;;;;5.20;2.60;;;;;;;20.48;52.73;101489.22;4976333;28;20030;-82
2023/07/09 00:36:53;;;;;;;4.88;2.47;;;;;;;20.54;52.47;101490.50;4976283;28;20496;-82
2023/07/09 00:39:22;;;;;;;5.53;2.90;;;;;;;20.57;52.49;101499.03;4992834;28;20031;-82
2023/07/09 00:41:48;;;;;;;5.65;2.92;;;;;;;20.56;52.75;101504.41;4976603;28;20064;-83
2023/07/09 00:44:19;;;;;;;4.35;2.70;;;;;;;20.54;52.40;101487.88;4992700;28;20121;-82
2023/07/09 00:46:48;;;;;;;3.80;2.78;;;;;;;20.55;52.52;101489.56;4993874;28;20080;-84
2023/07/09 00:49:17;;;;;;;4.30;2.67;;;;;;;20.54;52.90;101499.22;4992079;28;20031;-83
2023/07/09 00:51:46;;;;;;;4.03;2.53;;;;;;;20.41;52.88;101471.38;4960977;28;20088;-83
2023/07/09 00:54:30;;;;;;;4.50;2.60;;;;;;;20.46;52.82;101496.38;4959777;28;20031;-82
2023/07/09 00:56:57;;;;;;;3.53;2.63;;;;;;;20.44;53.10;101505.31;4976965;28;20515;-82
2023/07/09 00:59:24;;;;;;;3.92;2.47;;;;;;;20.42;53.40;101500.16;4976395;28;20033;-82
2023/07/09 01:01:50;;;;;;;3.55;2.33;;;;;;;20.41;53.11;101493.22;4992330;28;20496;-82
2023/07/09 01:04:17;;;;;;;4.22;2.20;;;;;;;20.33;53.51;101491.16;4975590;28;20073;-82
2023/07/09 01:06:49;;;;;;;4.90;2.47;;;;;;;20.42;53.67;101494.06;4975899;28;20033;-83
2023/07/09 01:09:14;;;;;;;6.53;2.85;;;;;;;20.39;53.47;101505.66;4976289;28;20026;-83
2023/07/09 01:11:39;;;;;;;6.10;2.58;;;;;;;20.28;53.29;101503.00;4975941;28;20041;-82
2023/07/09 01:14:07;;;;;;;4.68;2.75;;;;;;;20.18;53.83;101502.88;4959743;28;20026;-82
2023/07/09 01:16:35;;;;;;;4.55;2.50;;;;;;;20.15;53.81;101500.44;4975649;28;20110;-82
2023/07/09 01:19:00;;;;;;;3.55;2.50;;;;;;;20.25;54.12;101514.56;4976005;28;20030;-82
2023/07/09 01:21:26;;;;;;;4.28;2.67;;;;;;;20.16;54.11;101489.00;4992174;28;20041;-82
2023/07/09 01:23:52;;;;;;;6.32;2.80;;;;;;;20.27;53.93;101502.16;4975794;28;20026;-82
2023/07/09 01:26:25;;;;;;;3.78;2.53;;;;;;;20.27;53.91;101499.53;4975597;28;20038;-82
2023/07/09 01:28:51;;;;;;;3.75;2.58;;;;;;;20.32;53.75;101510.53;4975825;28;20568;-82
2023/07/09 01:31:17;;;;;;;9.05;4.43;;;;;;;20.32;53.93;101500.00;4975378;28;20534;-83
2023/07/09 01:33:44;;;;;;;7.70;2.97;;;;;;;20.31;54.53;101503.59;4991653;28;20034;-82
2023/07/09 01:36:13;;;;;;;8.30;4.85;;;;;;;20.34;54.03;101508.63;4975723;28;20088;-84
2023/07/09 01:38:40;;;;;;;5.68;3.38;;;;;;;20.41;53.73;101508.16;4976219;28;20026;-82
2023/07/09 01:41:05;;;;;;;6.82;2.50;;;;;;;20.45;53.85;101509.63;4975647;28;20512;-82
2023/07/09 01:43:31;;;;;;;4.05;2.58;;;;;;;20.42;53.90;101504.56;4975682;28;20030;-82
2023/07/09 01:45:57;;;;;;;4.07;2.42;;;;;;;20.33;53.40;101506.94;4975044;28;20034;-82
2023/07/09 01:48:24;;;;;;;3.10;2.28;;;;;;;20.41;53.81;101513.41;4991427;28;20039;-82
2023/07/09 01:50:49;;;;;;;4.18;2.58;;;;;;;20.31;53.60;101513.28;4959313;28;20117;-82
2023/07/09 01:53:15;;;;;;;4.88;3.05;;;;;;;20.18;53.92;101497.63;4975410;28;20041;-82
2023/07/09 01:55:40;;;;;;;3.97;2.80;;;;;;;20.24;54.27;101512.88;4974923;28;20054;-83
2023/07/09 01:58:07;;;;;;;4.22;2.80;;;;;;;20.19;54.07;101506.31;4975064;28;20050;-82
2023/07/09 02:00:34;;;;;;;3.97;2.55;;;;;;;20.17;54.42;101506.44;4958656;28;20057;-82
2023/07/09 02:03:01;;;;;;;5.68;2.38;;;;;;;20.23;54.12;101510.38;4975359;28;20030;-82
2023/07/09 02:05:28;;;;;;;4.13;2.80;;;;;;;20.18;54.19;101513.38;4991304;28;20496;-82
2023/07/09 02:07:54;;;;;;;4.05;2.60;;;;;;;20.15;53.79;101504.88;4975048;28;20042;-82
2023/07/09 02:10:20;;;;;;;8.00;2.13;;;;;;;20.17;54.31;101519.59;4992246;28;20034;-83
2023/07/09 02:12:45;;;;;;;5.28;2.72;;;;;;;20.20;54.47;101518.50;4991825;28;20518;-82
2023/07/09 02:15:11;;;;;;;5.05;2.50;;;;;;;20.15;54.26;101513.59;4958385;28;20038;-82
2023/07/09 02:17:37;;;;;;;3.42;2.35;;;;;;;20.29;54.31;101529.16;4957834;28;20030;-83
2023/07/09 02:20:05;;;;;;;5.10;2.85;;;;;;;20.22;54.46;101521.84;4990563;28;20026;-82
2023/07/09 02:22:30;;;;;;;4.15;2.38;;;;;;;20.16;54.95;101531.06;4991967;28;20404;-82
2023/07/09 02:24:56;;;;;;;3.83;2.45;;;;;;;20.19;54.58;101536.06;4958476;28;20030;-82
2023/07/09 02:27:21;;;;;;;4.22;2.83;;;;;;;20.11;54.92;101546.31;4990416;28;20415;-82
2023/07/09 02:29:47;;;;;;;3.78;2.22;;;;;;;20.10;54.93;101549.88;4974014;28;20022;-82
2023/07/09 02:32:20;;;;;;;3.78;2.42;;;;;;;20.06;54.80;101548.44;4974537;28;20037;-82
2023/07/09 02:34:52;;;;;;;4.05;2.72;;;;;;;20.07;55.01;101552.75;4974595;28;20031;-82
2023/07/09 02:37:21;;;;;;;7.82;2.90;;;;;;;19.93;55.76;101545.03;4975099;28;20500;-84
2023/07/09 02:39:47;;;;;;;4.13;2.90;;;;;;;19.88;55.51;101552.44;4974609;28;20567;-82
2023/07/09 02:42:13;;;;;;;6.68;2.78;;;;;;;20.02;54.71;101539.09;4974323;28;20088;-82
2023/07/09 02:44:40;;;;;;;3.17;2.15;;;;;;;20.18;54.74;101559.81;4974069;28;20034;-82
2023/07/09 02:47:06;;;;;;;5.03;2.35;;;;;;;20.17;54.37;101561.63;4974342;28;20077;-82
2023/07/09 02:49:31;;;;;;;4.28;2.30;;;;;;;20.13;54.73;101559.31;4990428;28;20555;-82
2023/07/09 02:51:56;;;;;;;3.65;2.72;;;;;;;19.84;55.55;101533.41;4973980;28;20037;-83
2023/07/09 02:54:22;;;;;;;3.67;2.60;;;;;;;19.83;55.30;101554.53;5006677;28;20053;-83
2023/07/09 02:56:47;;;;;;;5.43;2.40;;;;;;;19.86;55.06;101556.94;4973676;28;20081;-82
2023/07/09 02:59:13;;;;;;;4.22;2.40;;;;;;;19.85;56.10;101568.38;4991152;28;20484;-82
2023/07/09 03:01:39;;;;;;;6.10;3.05;;;;;;;19.82;55.57;101574.72;4989997;28;20412;-82
2023/07/09 03:04:04;;;;;;;4.80;2.60;;;;;;;19.74;55.84;101562.13;4974142;28;20058;-82
2023/07/09 03:06:32;;;;;;;3.45;2.28;;;;;;;19.71;55.75;101557.09;4974008;28;20031;-82
2023/07/09 03:08:58;;;;;;;3.97;2.35;;;;;;;19.76;55.56;101575.13;4973992;28;20034;-82
2023/07/09 03:11:23;;;;;;;4.03;2.53;;;;;;;19.73;55.93;101570.97;4974049;28;20416;-82
2023/07/09 03:13:49;;;;;;;7.85;2.88;;;;;;;19.81;55.69;101561.69;4973698;28;20104;-82
2023/07/09 03:16:15;;;;;;;4.28;2.63;;;;;;;19.81;56.59;101580.91;4957893;28;20030;-82
2023/07/09 03:18:40;;;;;;;6.97;2.83;;;;;;;19.73;56.91;101570.97;4957838;28;20103;-82
2023/07/09 03:21:06;;;;;;;5.30;2.47;;;;;;;19.71;55.98;101567.59;4990053;28;20100;-83
2023/07/09 03:23:31;;;;;;;5.35;2.92;;;;;;;19.81;56.03;101586.16;5006365;28;20027;-82
2023/07/09 03:25:57;;;;;;;5.40;3.00;;;;;;;19.82;55.83;101587.00;4957674;28;20041;-82
2023/07/09 03:28:23;;;;;;;4.57;2.70;;;;;;;19.83;55.96;101586.88;4975230;28;20030;-82
2023/07/09 03:30:48;;;;;;;3.15;2.30;;;;;;;19.76;56.40;101586.50;4977950;28;20022;-82
2023/07/09 03:33:15;;;;;;;6.53;3.05;;;;;;;19.69;56.89;101574.75;4977648;28;20121;-82
2023/07/09 03:35:40;;;;;;;3.92;2.40;;;;;;;19.79;56.56;101589.84;4961596;28;20030;-83
2023/07/09 03:38:06;;;;;;;3.65;2.50;;;;;;;19.82;56.47;101594.88;4977695;28;20037;-81
2023/07/09 03:40:32;;;;;;;4.05;2.70;;;;;;;19.74;56.75;101584.91;4993823;28;20054;-83
2023/07/09 03:42:57;;;;;;;3.55;2.50;;;;;;;19.79;56.29;101595.94;4977345;28;20038;-82
2023/07/09 03:45:23;;;;;;;3.42;2.47;;;;;;;19.75;56.63;101590.06;4993977;28;20049;-82
2023/07/09 03:47:48;;;;;;;3.20;2.38;;;;;;;19.67;57.23;101595.03;4977448;28;20096;-82
2023/07/09 03:50:14;;;;;;;4.57;2.67;;;;;;;19.51;57.06;101570.81;4993684;28;20393;-82
2023/07/09 03:52:39;;;;;;;3.97;2.55;;;;;;;19.47;57.39;101582.47;4993603;28;20088;-82
2023/07/09 03:55:05;;;;;;;4.70;2.70;;;;;;;19.41;57.86;101582.91;4977435;28;20057;-82
2023/07/09 03:57:31;;;;;;;4.43;2.70;;;;;;;19.46;58.24;101584.22;4992972;28;20046;-82
2023/07/09 03:59:56;;;;;;;4.28;2.58;;;;;;;19.54;58.12;101585.47;4976810;28;20105;-83
2023/07/09 04:02:22;;;;;;;6.45;3.50;;;;;;;19.45;58.54;101590.44;4977160;28;20030;-82
2023/07/09 04:04:47;;;;;;;4.32;3.03;;;;;;;19.46;58.26;101578.16;4993314;28;20031;-82
2023/07/09 04:07:13;;;;;;;4.95;3.40;;;;;;;19.62;58.37;101599.78;4960903;28;20389;-83
2023/07/09 04:09:38;;;;;;;5.55;3.40;;;;;;;19.64;57.98;101597.03;4993345;28;20105;-83
2023/07/09 04:12:04;;;;;;;7.22;3.95;;;;;;;19.55;57.53;101597.66;4992623;28;20054;-82
2023/07/09 04:14:30;;;;;;;5.28;3.78;;;;;;;19.60;57.74;101601.66;4977028;28;20556;-82
2023/07/09 04:16:55;;;;;;;7.07;3.00;;;;;;;19.64;57.81;101595.25;4993079;28;20030;-82
2023/07/09 04:19:20;;;;;;;4.32;3.28;;;;;;;19.73;57.17;101607.72;4992892;28;20037;-82
2023/07/09 04:21:46;;;;;;;6.95;3.20;;;;;;;19.69;57.45;101595.75;4993058;28;20508;-82
2023/07/09 04:24:11;;;;;;;10.95;3.08;;;;;;;19.66;57.32;101584.63;4994231;28;20459;-82
2023/07/09 04:26:38;;;;;;;4.70;3.33;;;;;;;19.99;56.89;101600.59;4976125;28;20033;-82
2023/07/09 04:29:05;;;;;;;5.18;3.15;;;;;;;20.07;56.78;101607.06;4992983;28;20026;-82
2023/07/09 04:31:30;;;;;;;7.60;3.00;;;;;;;19.93;56.67;101582.63;4992895;28;20034;-83
2023/07/09 04:33:56;;;;;;;5.00;3.35;;;;;;;20.10;56.37;101612.94;4992686;28;20031;-82
2023/07/09 04:36:21;;;;;;;7.22;3.00;;;;;;;20.04;56.65;101606.31;4976683;28;20045;-82
2023/07/09 04:38:47;;;;;;;8.52;2.72;;;;;;;20.03;56.74;101598.56;4976606;28;20030;-83
2023/07/09 04:41:12;;;;;;;3.97;2.58;;;;;;;20.12;56.49;101605.75;4975110;28;20031;-82
2023/07/09 04:43:38;;;;;;;4.40;2.90;;;;;;;20.21;56.50;101612.97;5008981;28;20027;-82
2023/07/09 04:46:03;;;;;;;4.80;2.70;;;;;;;20.24;56.26;101620.63;4960230;28;20073;-82
2023/07/09 04:48:28;;;;;;;11.18;2.83;;;;;;;20.16;56.21;101599.34;4992563;28;20026;-82
2023/07/09 04:50:54;;;;;;;4.28;2.50;;;;;;;20.15;56.60;101597.66;4992279;28;20523;-81
2023/07/09 04:53:20;;;;;;;3.70;2.60;;;;;;;20.32;56.25;101610.38;4976274;28;20026;-82
2023/07/09 04:55:45;;;;;;;3.83;2.55;;;;;;;20.26;56.60;101600.34;4992065;28;20030;-82
2023/07/09 04:58:11;;;;;;;3.70;2.47;;;;;;;20.40;57.02;101612.44;4959864;28;20062;-82
2023/07/09 05:00:36;;;;;;;7.22;2.95;;;;;;;20.33;57.14;101591.03;4959954;28;20515;-82
2023/07/09 05:03:01;;;;;;;5.90;2.65;;;;;;;20.50;57.58;101612.63;4976378;28;20034;-82
2023/07/09 05:05:27;;;;;;;4.88;3.10;;;;;;;20.60;57.63;101603.09;4976080;28;20034;-81
2023/07/09 05:07:52;;;;;;;3.10;2.30;;;;;;;20.71;56.82;101613.63;4975909;28;20038;-82
2023/07/09 05:10:18;;;;;;;5.25;3.03;;;;;;;20.80;57.04;101605.03;4991558;28;20037;-82
2023/07/09 05:12:50;;;;;;;5.10;2.95;;;;;;;20.92;56.63;101613.78;4975965;28;20045;-81
2023/07/09 05:15:16;;;;;;;4.40;2.65;;;;;;;20.98;56.10;101607.22;4960216;28;20023;-82
2023/07/09 05:17:42;;;;;;;4.05;2.35;;;;;;;21.18;55.53;101620.50;4975825;28;20112;-83
2023/07/09 05:20:08;;;;;;;7.13;2.85;;;;;;;21.31;55.99;101604.63;4976022;28;20481;-82
2023/07/09 05:22:33;;;;;;;5.35;2.53;;;;;;;21.45;55.54;101617.53;4993054;28;20049;-82
2023/07/09 05:24:59;;;;;;;4.60;2.90;;;;;;;21.45;55.67;101591.22;4975205;28;20041;-82
2023/07/09 05:27:24;;;;;;;4.65;2.80;;;;;;;21.69;55.11;101613.91;4991583;28;20031;-83
2023/07/09 05:29:50;;;;;;;3.90;2.72;;;;;;;21.73;54.42;101610.91;4959602;28;20034;-82
2023/07/09 05:32:15;;;;;;;3.58;2.42;;;;;;;21.88;53.66;101608.00;4975518;28;20081;-82
2023/07/09 05:34:41;;;;;;;6.45;2.80;;;;;;;21.95;52.97;101610.00;4975520;28;20034;-82
2023/07/09 05:37:06;;;;;;;4.13;2.33;;;;;;;22.05;52.60;101612.72;4991691;28;20032;-82
2023/07/09 05:39:31;;;;;;;4.80;2.60;;;;;;;22.13;52.87;101606.88;4975193;28;20077;-82
2023/07/09 05:41:57;;;;;;;6.55;2.30;;;;;;;22.24;52.52;101607.66;4975308;28;20026;-82
2023/07/09 05:44:22;;;;;;;8.63;2.60;;;;;;;22.30;52.77;101601.84;4995763;28;20026;-82
2023/07/09 05:46:48;;;;;;;4.53;2.63;;;;;;;22.49;52.14;101610.88;5010962;28;20038;-83
2023/07/09 05:49:13;;;;;;;6.38;2.50;;;;;;;22.59;52.17;101620.53;5012157;28;20025;-83
2023/07/09 05:51:39;;;;;;;5.07;2.65;;;;;;;22.65;51.66;101613.06;5010906;28;20034;-83
2023/07/09 05:54:04;;;;;;;4.35;2.78;;;;;;;22.72;51.06;101593.13;5010547;28;20057;-82
2023/07/09 05:56:30;;;;;;;4.85;2.67;;;;;;;22.90;51.23;101599.47;4977984;28;20041;-82
2023/07/09 05:58:56;;;;;;;4.70;2.30;;;;;;;23.04;50.97;101612.34;4978224;28;20022;-84
2023/07/09 06:01:22;;;;;;;6.32;3.03;;;;;;;23.14;51.06;101609.75;4994446;28;20026;-83
2023/07/09 06:03:47;;;;;;;4.45;2.70;;;;;;;23.07;49.18;101577.75;4994140;28;20492;-82
2023/07/09 06:06:13;;;;;;;5.78;2.38;;;;;;;23.44;48.88;101606.25;4994243;28;20030;-83
2023/07/09 06:08:38;;;;;;;2.83;2.10;;;;;;;23.52;45.95;101614.34;4994276;28;20453;-83
2023/07/09 06:11:04;;;;;;;3.55;2.15;;;;;;;23.65;46.04;101612.28;4993937;28;20443;-84
2023/07/09 06:13:32;;;;;;;3.28;2.33;;;;;;;23.75;45.91;101599.94;4993998;28;20030;-83
2023/07/09 06:15:58;;;;;;;5.50;2.67;;;;;;;23.88;45.56;101597.03;4994388;28;20038;-84
2023/07/09 06:18:24;;;;;;;3.45;2.10;;;;;;;24.11;45.57;101613.47;4994221;28;20037;-83
2023/07/09 06:20:54;;;;;;;6.05;2.80;;;;;;;24.17;45.15;101609.41;5010306;28;20033;-83
2023/07/09 06:23:20;;;;;;;4.90;2.42;;;;;;;24.22;45.41;101608.03;4977825;28;20484;-83
2023/07/09 06:25:48;;;;;;;3.58;2.33;;;;;;;24.31;45.08;101607.22;5010132;28;20085;-82
2023/07/09 06:28:18;;;;;;;5.43;2.22;;;;;;;24.39;44.22;101603.88;4994225;28;20033;-83
2023/07/09 06:30:44;;;;;;;4.13;2.47;;;;;;;24.52;44.32;101608.88;4977859;28;20029;-83
2023/07/09 06:33:10;;;;;;;4.32;2.58;;;;;;;24.57;43.46;101606.63;4977659;28;20419;-83
2023/07/09 06:35:36;;;;;;;3.63;2.42;;;;;;;24.40;44.07;101578.28;4993608;28;20026;-83
2023/07/09 06:38:01;;;;;;;4.68;2.40;;;;;;;24.64;43.23;101594.50;5011459;28;20476;-83
2023/07/09 06:40:27;;;;;;;6.13;2.88;;;;;;;24.77;43.21;101597.66;4993594;28;20030;-83
2023/07/09 06:42:53;;;;;;;6.60;2.92;;;;;;;24.68;43.44;101569.44;4977586;28;20170;-82
2023/07/09 06:45:18;;;;;;;3.80;2.53;;;;;;;24.85;43.76;101586.34;5009946;28;20476;-84
2023/07/09 06:47:44;;;;;;;5.75;2.58;;;;;;;24.90;43.44;101576.19;4977362;28;20030;-83
2023/07/09 06:50:10;;;;;;;4.10;2.45;;;;;;;25.10;43.79;101592.84;4993394;28;20034;-82
2023/07/09 06:52:35;;;;;;;4.03;2.40;;;;;;;25.13;43.27;101588.09;5009944;28;20492;-82
2023/07/09 06:55:01;;;;;;;3.33;2.13;;;;;;;25.18;43.42;101574.44;4993287;28;20026;-83
2023/07/09 06:57:26;;;;;;;3.80;2.67;;;;;;;25.38;42.33;101586.59;4993436;28;20053;-82
2023/07/09 06:59:51;;;;;;;4.43;2.40;;;;;;;25.40;42.53;101589.91;4993617;28;20516;-82
2023/07/09 07:02:18;;;;;;;2.72;2.03;;;;;;;25.50;42.70;101586.38;4977067;28;20384;-83
2023/07/09 07:04:43;;;;;;;5.97;2.25;;;;;;;25.56;42.71;101577.81;5010521;28;20570;-82
2023/07/09 07:07:09;;;;;;;5.80;3.00;;;;;;;25.65;41.65;101574.25;4977223;28;20034;-82
2023/07/09 07:09:35;;;;;;;3.80;2.22;;;;;;;25.74;40.66;101560.16;4977403;28;20113;-83
2023/07/09 07:12:00;;;;;;;3.38;2.53;;;;;;;25.85;41.13;101565.22;4977145;28;20042;-83
2023/07/09 07:14:26;;;;;;;3.30;2.53;;;;;;;25.63;41.10;101552.38;4977217;28;20032;-83
2023/07/09 07:16:51;;;;;;;5.68;2.60;;;;;;;25.93;40.20;101569.75;5009336;28;20511;-83
2023/07/09 07:19:17;;;;;;;4.57;2.60;;;;;;;25.89;40.91;101566.59;5009176;28;20030;-82
2023/07/09 07:21:42;;;;;;;3.53;2.53;;;;;;;25.95;40.07;101554.53;4993073;28;20037;-83
2023/07/09 07:24:08;;;;;;;4.03;2.25;;;;;;;26.10;39.25;101573.41;4993220;28;20045;-83
2023/07/09 07:26:33;;;;;;;3.55;2.42;;;;;;;26.35;39.87;101569.97;4992956;28;20033;-83
2023/07/09 07:28:59;;;;;;;4.30;2.60;;;;;;;26.31;39.35;101565.94;5009868;28;20033;-82
2023/07/09 07:31:25;;;;;;;6.25;2.65;;;;;;;26.43;39.68;101577.16;4977003;28;20033;-82
2023/07/09 07:33:50;;;;;;;4.85;2.80;;;;;;;26.38;39.21;101556.41;4992758;28;20111;-83
2023/07/09 07:36:16;;;;;;;3.85;2.72;;;;;;;26.54;38.44;101567.09;4992940;28;20022;-83
2023/07/09 07:38:41;;;;;;;4.55;3.00;;;;;;;26.43;38.61;101551.44;4993308;28;20491;-82
2023/07/09 07:41:07;;;;;;;9.25;2.60;;;;;;;26.42;37.83;101559.56;4976993;28;20100;-83
2023/07/09 07:43:32;;;;;;;4.07;2.47;;;;;;;26.62;37.52;101554.88;4993173;28;20080;-83
2023/07/09 07:45:58;;;;;;;4.45;2.42;;;;;;;26.75;37.40;101563.28;4992984;28;20022;-83
2023/07/09 07:48:23;;;;;;;4.43;2.63;;;;;;;26.87;37.37;101560.19;5009406;28;20037;-83
2023/07/09 07:50:49;;;;;;;4.28;2.50;;;;;;;26.96;36.81;101555.75;4992675;28;20100;-83
2023/07/09 07:53:15;;;;;;;5.90;2.85;;;;;;;27.07;37.28;101559.97;4976911;28;20037;-82
2023/07/09 07:55:41;;;;;;;4.90;2.95;;;;;;;27.15;37.82;101563.47;4992900;28;20034;-83
2023/07/09 07:58:08;;;;;;;5.88;2.85;;;;;;;27.26;36.92;101554.38;4976796;28;20050;-83
2023/07/09 08:00:33;;;;;;;3.92;2.45;;;;;;;27.13;37.33;101554.81;4992824;28;20415;-83
2023/07/09 08:02:58;;;;;;;3.80;2.55;;;;;;;27.25;37.77;101565.19;5009302;28;20022;-83
2023/07/09 08:05:24;;;;;;;4.63;3.03;;;;;;;27.34;37.70;101566.88;4976586;28;20029;-83
2023/07/09 08:07:50;;;;;;;4.07;2.60;;;;;;;27.33;37.51;101565.19;4992808;28;20034;-82
2023/07/09 08:10:15;;;;;;;3.60;2.65;;;;;;;27.34;37.44;101559.72;5009228;28;20462;-82
2023/07/09 08:12:41;;;;;;;3.33;2.40;;;;;;;27.41;37.50;101557.22;4992865;28;20026;-83
2023/07/09 08:15:07;;;;;;;4.72;3.28;;;;;;;27.59;36.93;101565.09;4993705;28;20026;-82
2023/07/09 08:17:32;;;;;;;7.13;2.75;;;;;;;27.67;37.08;101563.31;4996150;28;20165;-82
2023/07/09 08:19:58;;;;;;;3.13;2.55;;;;;;;27.64;37.41;101565.44;5013849;28;20497;-83
2023/07/09 08:22:24;;;;;;;3.78;2.80;;;;;;;27.72;37.58;101553.00;4996373;28;20034;-83
2023/07/09 08:24:49;;;;;;;4.45;2.67;;;;;;;27.89;37.10;101567.16;4980082;28;20480;-83
2023/07/09 08:27:15;;;;;;;4.32;2.72;;;;;;;27.81;37.63;101564.47;4996206;28;20037;-82
2023/07/09 08:29:42;;;;;;;3.83;2.67;;;;;;;27.90;37.77;101558.16;4979872;28;20038;-84
2023/07/09 08:32:08;;;;;;;4.20;2.72;;;;;;;28.08;35.39;101565.97;5012249;28;20084;-82
2023/07/09 08:34:33;;;;;;;4.47;2.40;;;;;;;28.01;36.16;101554.34;4979808;28;20026;-83
2023/07/09 08:36:59;;;;;;;4.65;2.95;;;;;;;28.15;36.57;101556.34;4996097;28;20041;-84
2023/07/09 08:39:24;;;;;;;4.03;2.67;;;;;;;28.22;36.55;101540.53;4979809;28;20034;-84
2023/07/09 08:42:07;;;;;;;3.88;2.70;;;;;;;28.38;35.93;101550.34;5012354;28;20428;-83
2023/07/09 08:44:43;;;;;;;5.63;2.97;;;;;;;28.25;34.56;101545.53;4996522;28;20033;-82
2023/07/09 08:47:16;;;;;;;3.58;2.58;;;;;;;28.33;34.44;101550.06;5011785;28;20037;-82
2023/07/09 08:49:59;;;;;;;4.32;2.63;;;;;;;28.46;34.26;101535.22;4995719;28;20076;-82
2023/07/09 08:52:33;;;;;;;3.72;2.88;;;;;;;28.47;33.92;101533.38;5012360;28;20084;-83
2023/07/09 08:55:01;;;;;;;4.07;2.90;;;;;;;28.56;34.50;101537.69;4995960;28;20033;-83
2023/07/09 08:57:29;;;;;;;7.35;2.90;;;;;;;28.81;34.94;101541.94;4995733;28;20077;-83
2023/07/09 09:00:02;;;;;;;5.68;2.70;;;;;;;28.88;34.30;101535.91;4996082;28;20041;-82
2023/07/09 09:02:35;;;;;;;4.78;2.90;;;;;;;29.08;33.71;101540.66;4979547;28;20056;-82
2023/07/09 09:05:03;;;;;;;5.55;3.03;;;;;;;29.09;33.62;101541.50;4996068;28;20476;-83
2023/07/09 09:07:41;;;;;;;5.13;2.40;;;;;;;28.89;33.86;101521.59;4995464;28;20117;-83
2023/07/09 09:10:18;;;;;;;4.32;2.95;;;;;;;29.05;33.89;101541.03;4995387;28;20026;-82
2023/07/09 09:13:01;;;;;;;3.83;2.42;;;;;;;29.04;34.41;101543.88;4996417;28;20038;-84
2023/07/09 09:15:27;;;;;;;4.60;2.80;;;;;;;28.97;34.67;101522.41;5012531;28;20033;-83
2023/07/09 09:18:26;;;;;;;5.15;3.50;;;;;;;28.96;34.86;101517.25;5013025;28;20431;-84
2023/07/09 09:21:04;;;;;;;4.32;2.80;;;;;;;28.96;34.41;101535.91;5011741;28;20084;-85
2023/07/09 09:23:40;;;;;;;5.38;3.28;;;;;;;29.05;34.86;101532.19;4995795;28;20487;-83
2023/07/09 09:26:14;;;;;;;5.45;3.28;;;;;;;29.07;35.09;101547.00;4978606;28;20455;-83
2023/07/09 09:28:39;;;;;;;3.75;2.88;;;;;;;29.19;35.04;101539.44;4995428;28;20033;-82
2023/07/09 09:31:07;;;;;;;10.60;3.20;;;;;;;29.22;34.74;101539.13;4994735;28;20037;-83
2023/07/09 09:33:43;;;;;;;6.70;3.75;;;;;;;29.33;34.31;101533.38;4979004;28;20033;-83
2023/07/09 09:36:21;;;;;;;5.68;3.90;;;;;;;29.53;34.37;101531.13;4978812;28;20129;-83
2023/07/09 09:38:47;;;;;;;5.43;3.35;;;;;;;29.52;34.70;101524.13;4979283;28;20030;-83
2023/07/09 09:41:16;;;;;;;4.07;3.00;;;;;;;29.68;34.43;101539.16;4978430;28;20034;-83
2023/07/09 09:43:44;;;;;;;3.67;2.50;;;;;;;29.61;34.09;101527.56;4978999;28;20028;-83
2023/07/09 09:46:09;;;;;;;6.03;3.10;;;;;;;29.76;34.24;101532.94;4994446;28;20451;-83
2023/07/09 09:48:36;;;;;;;4.55;3.38;;;;;;;29.89;33.61;101541.16;4994752;28;20546;-83
2023/07/09 09:51:03;;;;;;;4.03;2.55;;;;;;;29.99;32.87;101534.59;4994718;28;20026;-83
2023/07/09 09:53:30;;;;;;;7.82;2.85;;;;;;;30.02;32.47;101529.91;4994377;28;20057;-83
2023/07/09 09:55:56;;;;;;;5.93;2.88;;;;;;;29.83;32.77;101532.06;4994403;28;20112;-83
2023/07/09 09:58:25;;;;;;;4.22;2.85;;;;;;;29.95;32.12;101524.44;4994340;28;20053;-82
2023/07/09 10:00:51;;;;;;;4.90;2.90;;;;;;;29.87;32.92;101528.00;4994125;28;20034;-83
2023/07/09 10:03:36;;;;;;;4.40;3.03;;;;;;;29.88;32.87;101529.66;4994865;28;20045;-83
2023/07/09 10:06:16;;;;;;;4.40;2.60;;;;;;;29.80;33.04;101504.94;5010870;28;20041;-83
2023/07/09 10:08:49;;;;;;;3.90;2.92;;;;;;;29.98;32.46;101530.25;4995583;28;20030;-83
2023/07/09 10:11:27;;;;;;;6.00;3.30;;;;;;;30.09;32.26;101530.84;5010261;28;20034;-83
2023/07/09 10:13:52;;;;;;;5.28;3.10;;;;;;;30.13;32.67;101521.47;5011135;28;20392;-83
2023/07/09 10:16:38;;;;;;;8.60;5.97;;;;;;;30.12;32.73;101519.81;4994121;28;20037;-83
2023/07/09 10:19:38;;;;;;;5.10;3.35;;;;;;;30.31;32.63;101507.81;5010527;28;20025;-82
2023/07/09 10:22:12;;;;;;;6.40;4.15;;;;;;;30.40;31.99;101509.38;4979619;28;20044;-83
2023/07/09 10:24:38;;;;;;;5.00;3.50;;;;;;;30.21;31.83;101518.75;4978189;28;20084;-84
2023/07/09 10:27:10;;;;;;;11.43;7.10;;;;;;;30.37;31.55;101518.56;5011458;28;20419;-83
2023/07/09 10:30:13;;;;;;;7.20;3.63;;;;;;;30.30;32.43;101517.66;4993543;28;20041;-83
2023/07/09 10:32:51;;;;;;;5.90;3.63;;;;;;;30.16;33.20;101515.78;4993815;28;20423;-83
2023/07/09 10:35:32;;;;;;;8.27;3.85;;;;;;;30.31;33.02;101519.31;5011221;28;20033;-82
2023/07/09 10:38:40;;;;;;;5.72;3.20;;;;;;;30.62;31.51;101512.94;4993655;28;20033;-82
2023/07/09 10:41:09;;;;;;;5.35;3.10;;;;;;;30.71;31.93;101506.53;4989911;28;20401;-83
2023/07/09 10:43:38;;;;;;;5.00;3.45;;;;;;;30.48;33.13;101504.78;4993689;28;20030;-83
2023/07/09 10:46:09;;;;;;;6.22;3.15;;;;;;;30.76;33.78;101512.97;5009776;28;20026;-83
2023/07/09 10:48:41;;;;;;;5.15;3.10;;;;;;;30.82;32.98;101500.72;4993311;28;20030;-84
2023/07/09 10:51:17;;;;;;;4.15;3.15;;;;;;;30.65;32.61;101476.03;4993968;28;20523;-83
2023/07/09 10:53:59;;;;;;;4.30;2.85;;;;;;;30.97;32.02;101504.16;4994575;28;20491;-83
2023/07/09 10:56:29;;;;;;;5.45;3.45;;;;;;;31.05;31.49;101500.56;4993293;28;20034;-83
2023/07/09 10:59:06;;;;;;;4.60;2.80;;;;;;;30.98;31.86;101497.84;4977495;28;20187;-83
2023/07/09 11:01:45;;;;;;;3.78;2.70;;;;;;;30.98;32.54;101497.84;4978842;28;20021;-83
2023/07/09 11:04:29;;;;;;;4.28;2.88;;;;;;;30.93;33.29;101486.88;5010245;28;20049;-84
2023/07/09 11:06:55;;;;;;;4.13;3.20;;;;;;;31.03;33.07;101487.41;4994180;28;20470;-84
2023/07/09 11:09:30;;;;;;;5.13;3.22;;;;;;;31.06;34.54;101492.34;4977336;28;20550;-84
2023/07/09 11:11:58;;;;;;;4.35;2.70;;;;;;;31.12;33.48;101486.25;4993318;28;20022;-84
2023/07/09 11:14:52;;;;;;;5.03;3.30;;;;;;;31.28;33.60;101485.25;4993318;28;20030;-84
2023/07/09 11:17:19;;;;;;;4.90;3.13;;;;;;;31.41;34.30;101479.19;4995292;28;20034;-83
2023/07/09 11:19:49;;;;;;;4.38;3.35;;;;;;;31.61;34.05;101490.88;4993482;28;20407;-84
2023/07/09 11:22:21;;;;;;;6.25;3.50;;;;;;;31.61;31.39;101488.22;4993707;28;20049;-84
2023/07/09 11:24:52;;;;;;;4.97;3.05;;;;;;;31.67;31.44;101484.78;5009630;28;20484;-83
2023/07/09 11:27:24;;;;;;;4.25;3.05;;;;;;;31.86;30.49;101487.84;4993149;28;20026;-83
2023/07/09 11:30:19;;;;;;;3.35;2.42;;;;;;;31.95;30.67;101492.00;4993283;28;20038;-83